Time;durP1;ratioP1;P1;durP2;ratioP2;P2;SDS_P1;SDS_P2;PMS_P1;PMS_P2;Temp;Humidity;BMP_temperature;BMP_pressure;BME280_temperature;BME280_humidity;BME280_pressure;Samples;Min_cycle;Max_cycle;Signal;HPM_P1;HPM_P2
2022/02/28 00:02:26;;;;;;;11.23;4.95;;;5.90;59.10;;;;;;5025545;28;20079;-60
2022/02/28 00:04:52;;;;;;;8.25;5.43;;;5.90;59.30;;;;;;5026936;28;20045;-65
2022/02/28 00:07:18;;;;;;;13.25;6.30;;;5.90;59.50;;;;;;5027125;28;20091;-65
2022/02/28 00:09:44;;;;;;;7.82;5.00;;;5.80;59.60;;;;;;5017794;28;20030;-59
2022/02/28 00:12:10;;;;;;;9.98;4.93;;;5.80;60.30;;;;;;5019310;28;20205;-59
2022/02/28 00:14:36;;;;;;;9.43;5.03;;;5.70;59.60;;;;;;5029217;28;20038;-59
2022/02/28 00:17:02;;;;;;;8.10;5.53;;;5.70;59.80;;;;;;5030843;28;20040;-58
2022/02/28 00:19:28;;;;;;;8.50;5.22;;;5.60;59.80;;;;;;5030719;28;20025;-60
2022/02/28 00:21:54;;;;;;;9.98;5.78;;;5.60;60.00;;;;;;5022268;28;20434;-65
2022/02/28 00:24:19;;;;;;;9.75;5.20;;;5.60;60.10;;;;;;5023892;28;20033;-65
2022/02/28 00:26:45;;;;;;;13.38;5.78;;;5.50;60.10;;;;;;5004167;28;20120;-65
2022/02/28 00:29:11;;;;;;;9.57;5.00;;;5.50;60.30;;;;;;5027057;28;20041;-59
2022/02/28 00:31:36;;;;;;;7.40;5.03;;;5.50;60.30;;;;;;5023286;28;20061;-59
2022/02/28 00:34:02;;;;;;;8.60;5.28;;;5.40;60.40;;;;;;5046421;28;20391;-59
2022/02/28 00:36:28;;;;;;;9.07;5.13;;;5.40;60.60;;;;;;5027093;28;20029;-65
2022/02/28 00:38:54;;;;;;;9.20;5.53;;;5.30;60.60;;;;;;5029575;28;20022;-65
2022/02/28 00:41:20;;;;;;;8.77;4.90;;;5.30;60.70;;;;;;5028991;28;20021;-65
2022/02/28 00:43:47;;;;;;;7.85;4.93;;;5.30;60.90;;;;;;5031539;28;20087;-65
2022/02/28 00:46:13;;;;;;;9.07;5.15;;;5.30;60.90;;;;;;5030145;28;20037;-59
2022/02/28 00:48:39;;;;;;;9.52;4.95;;;5.20;61.00;;;;;;5029314;28;20087;-65
2022/02/28 00:51:07;;;;;;;7.32;4.57;;;5.20;61.00;;;;;;5027224;28;20029;-59
2022/02/28 00:53:35;;;;;;;7.18;5.25;;;5.20;61.20;;;;;;5024573;28;20124;-65
2022/02/28 00:56:01;;;;;;;7.35;4.60;;;5.10;61.10;;;;;;5022316;28;20021;-59
2022/02/28 00:58:30;;;;;;;7.80;4.95;;;5.10;61.30;;;;;;5010679;28;20095;-65
2022/02/28 01:00:57;;;;;;;9.15;5.13;;;5.10;61.40;;;;;;5030611;28;20503;-59
2022/02/28 01:03:24;;;;;;;8.68;4.57;;;5.00;61.50;;;;;;5023933;28;20030;-59
2022/02/28 01:05:50;;;;;;;8.65;5.00;;;5.00;61.80;;;;;;5025689;28;20068;-59
2022/02/28 01:08:16;;;;;;;9.32;4.82;;;5.00;61.80;;;;;;5027124;28;20435;-60
2022/02/28 01:10:42;;;;;;;7.07;4.60;;;5.00;61.80;;;;;;5028716;28;20160;-65
2022/02/28 01:13:10;;;;;;;7.13;4.72;;;5.00;61.90;;;;;;5029821;28;20033;-65
2022/02/28 01:15:37;;;;;;;10.40;5.10;;;4.90;61.80;;;;;;5026036;28;20068;-65
2022/02/28 01:18:04;;;;;;;10.50;5.07;;;4.90;62.00;;;;;;5023331;28;20104;-65
2022/02/28 01:20:30;;;;;;;9.05;5.20;;;4.90;62.00;;;;;;5029457;28;20100;-65
2022/02/28 01:22:55;;;;;;;6.53;3.95;;;4.80;62.10;;;;;;5023760;28;20148;-59
2022/02/28 01:25:21;;;;;;;7.32;4.97;;;4.80;61.90;;;;;;5029078;28;20681;-65
2022/02/28 01:27:47;;;;;;;7.97;5.15;;;4.80;62.30;;;;;;5022783;28;20030;-58
2022/02/28 01:30:13;;;;;;;8.70;5.03;;;4.80;62.30;;;;;;5029166;28;20030;-59
2022/02/28 01:32:39;;;;;;;8.55;4.90;;;4.70;62.30;;;;;;5028540;28;20034;-59
2022/02/28 01:35:08;;;;;;;9.43;5.00;;;4.70;62.50;;;;;;5025598;28;20041;-57
2022/02/28 01:37:34;;;;;;;7.07;4.38;;;4.70;62.60;;;;;;5021152;28;20041;-58
2022/02/28 01:40:00;;;;;;;8.05;4.80;;;4.70;62.70;;;;;;5020323;28;20384;-58
2022/02/28 01:42:25;;;;;;;7.07;4.63;;;4.60;62.70;;;;;;5028492;28;20030;-65
2022/02/28 01:44:51;;;;;;;8.73;4.55;;;4.60;62.80;;;;;;5040919;28;20018;-58
2022/02/28 01:47:17;;;;;;;7.47;4.60;;;4.60;62.90;;;;;;5030753;28;20021;-56
2022/02/28 01:49:42;;;;;;;8.02;4.43;;;4.60;63.00;;;;;;5029427;28;20041;-60
2022/02/28 01:52:08;;;;;;;6.53;4.60;;;4.50;63.00;;;;;;5046123;28;20037;-59
2022/02/28 01:54:34;;;;;;;7.72;5.00;;;4.50;63.00;;;;;;5023881;28;20041;-65
2022/02/28 01:57:00;;;;;;;7.93;5.25;;;4.50;63.20;;;;;;5030147;28;20057;-59
2022/02/28 01:59:26;;;;;;;6.10;4.22;;;4.50;63.30;;;;;;5029561;28;20041;-59
2022/02/28 02:01:52;;;;;;;9.68;4.95;;;4.50;63.30;;;;;;5029963;28;20030;-65
2022/02/28 02:04:18;;;;;;;8.02;4.97;;;4.50;63.40;;;;;;5030470;28;20108;-57
2022/02/28 02:06:44;;;;;;;7.35;4.50;;;4.50;63.50;;;;;;5029708;28;20037;-58
2022/02/28 02:09:11;;;;;;;8.70;5.25;;;4.50;63.60;;;;;;5027962;28;20036;-58
2022/02/28 02:11:39;;;;;;;7.75;5.03;;;4.50;63.70;;;;;;5029212;28;20060;-59
2022/02/28 02:14:07;;;;;;;8.13;5.07;;;4.40;63.60;;;;;;5030183;28;20024;-65
2022/02/28 02:16:34;;;;;;;7.97;4.53;;;4.40;63.60;;;;;;5029313;28;20455;-65
2022/02/28 02:18:59;;;;;;;9.38;5.07;;;4.40;63.70;;;;;;5029522;28;20044;-65
2022/02/28 02:21:25;;;;;;;8.32;5.13;;;4.40;63.80;;;;;;5029552;28;20025;-65
2022/02/28 02:23:51;;;;;;;8.90;5.07;;;4.30;63.80;;;;;;5021874;28;20488;-65
2022/02/28 02:26:16;;;;;;;8.70;5.65;;;4.30;63.90;;;;;;5022366;28;20037;-58
2022/02/28 02:28:43;;;;;;;8.32;5.60;;;4.30;64.00;;;;;;5026243;28;20116;-58
2022/02/28 02:31:09;;;;;;;9.85;5.40;;;4.20;64.10;;;;;;5027614;28;20459;-59
2022/02/28 02:33:35;;;;;;;7.35;5.38;;;4.20;64.20;;;;;;5028918;28;20029;-59
2022/02/28 02:36:05;;;;;;;7.38;4.82;;;4.20;64.30;;;;;;5023429;28;20030;-60
2022/02/28 02:38:34;;;;;;;10.00;5.32;;;4.20;64.30;;;;;;5027586;28;20064;-65
2022/02/28 02:41:00;;;;;;;9.18;5.10;;;4.10;64.30;;;;;;5025600;28;20365;-59
2022/02/28 02:43:26;;;;;;;8.85;5.05;;;4.10;64.30;;;;;;5026244;28;20037;-58
2022/02/28 02:45:51;;;;;;;8.25;4.90;;;4.10;64.40;;;;;;5027312;28;20052;-58
2022/02/28 02:48:22;;;;;;;9.23;5.00;;;4.00;64.40;;;;;;5025262;28;20374;-59
2022/02/28 02:50:49;;;;;;;6.70;4.47;;;4.00;64.60;;;;;;5035516;28;20060;-59
2022/02/28 02:53:15;;;;;;;9.52;5.50;;;4.00;64.60;;;;;;5023157;28;20076;-59
2022/02/28 02:55:41;;;;;;;7.97;5.18;;;4.00;64.70;;;;;;5028248;28;20100;-59
2022/02/28 02:58:07;;;;;;;8.73;4.90;;;4.00;64.90;;;;;;5023093;28;20097;-65
2022/02/28 03:00:34;;;;;;;7.90;4.88;;;4.00;64.90;;;;;;5022311;28;20510;-58
2022/02/28 03:03:00;;;;;;;9.45;5.03;;;4.00;64.90;;;;;;5023321;28;20384;-59
2022/02/28 03:05:26;;;;;;;8.60;4.85;;;3.90;64.90;;;;;;5025297;28;20109;-58
2022/02/28 03:07:52;;;;;;;7.53;4.65;;;3.90;64.90;;;;;;5025172;28;20656;-59
2022/02/28 03:10:18;;;;;;;7.82;4.90;;;3.90;64.90;;;;;;5023606;28;20457;-64
2022/02/28 03:12:45;;;;;;;8.57;5.20;;;3.80;65.00;;;;;;5024309;28;20483;-59
2022/02/28 03:15:10;;;;;;;12.20;5.45;;;3.80;65.10;;;;;;5025014;28;20033;-64
2022/02/28 03:17:36;;;;;;;8.13;5.03;;;3.90;65.30;;;;;;5028769;28;20087;-65
2022/02/28 03:20:03;;;;;;;9.45;5.28;;;3.80;65.30;;;;;;5027955;28;20484;-59
2022/02/28 03:22:29;;;;;;;10.75;5.45;;;3.80;65.30;;;;;;5025123;28;20084;-58
2022/02/28 03:24:55;;;;;;;7.60;4.93;;;3.80;65.40;;;;;;5020856;28;20030;-65
2022/02/28 03:27:20;;;;;;;7.03;4.68;;;3.80;65.50;;;;;;5025530;28;20041;-65
2022/02/28 03:29:46;;;;;;;8.43;4.00;;;3.70;65.40;;;;;;5024170;28;20428;-65
2022/02/28 03:32:12;;;;;;;11.35;5.57;;;3.70;65.50;;;;;;5027035;28;20089;-65
2022/02/28 03:34:38;;;;;;;8.32;4.80;;;3.70;65.50;;;;;;5029126;28;20120;-65
2022/02/28 03:37:03;;;;;;;8.95;5.63;;;3.70;65.60;;;;;;5027822;28;20448;-59
2022/02/28 03:39:29;;;;;;;7.60;5.28;;;3.70;65.70;;;;;;5028172;28;20405;-59
2022/02/28 03:41:55;;;;;;;7.93;5.78;;;3.70;65.80;;;;;;5027855;28;20526;-58
2022/02/28 03:44:22;;;;;;;9.35;5.65;;;3.60;65.80;;;;;;5027496;28;20037;-59
2022/02/28 03:46:51;;;;;;;9.57;4.88;;;3.60;65.90;;;;;;5026220;28;20392;-58
2022/02/28 03:49:19;;;;;;;10.10;5.50;;;3.60;66.00;;;;;;5032316;28;20059;-65
2022/02/28 03:51:44;;;;;;;8.60;5.50;;;3.50;65.90;;;;;;5028085;28;20106;-64
2022/02/28 03:54:11;;;;;;;8.73;5.50;;;3.50;66.00;;;;;;5029292;28;20033;-60
2022/02/28 03:56:41;;;;;;;11.85;5.28;;;3.50;66.10;;;;;;5035191;28;20029;-58
2022/02/28 03:59:09;;;;;;;8.57;5.60;;;3.40;66.10;;;;;;5021631;28;20022;-58
2022/02/28 04:01:35;;;;;;;8.30;5.10;;;3.40;66.20;;;;;;5028868;28;20088;-58
2022/02/28 04:04:02;;;;;;;8.43;5.22;;;3.40;66.20;;;;;;5021634;28;20400;-64
2022/02/28 04:06:29;;;;;;;11.40;5.40;;;3.40;66.30;;;;;;5029957;28;20476;-65
2022/02/28 04:08:55;;;;;;;7.68;4.97;;;3.30;66.20;;;;;;5021321;28;20118;-65
2022/02/28 04:11:21;;;;;;;7.97;5.10;;;3.30;66.30;;;;;;5030562;28;20088;-59
2022/02/28 04:13:47;;;;;;;8.95;5.80;;;3.30;66.30;;;;;;5026384;28;20419;-64
2022/02/28 04:16:12;;;;;;;7.90;5.10;;;3.30;66.40;;;;;;5017919;28;20060;-65
2022/02/28 04:18:38;;;;;;;11.02;5.70;;;3.20;66.40;;;;;;5030627;28;20168;-60
2022/02/28 04:21:04;;;;;;;9.15;5.20;;;3.20;66.40;;;;;;5028581;28;20096;-59
2022/02/28 04:23:30;;;;;;;9.27;5.35;;;3.30;66.40;;;;;;5025971;28;20032;-59
2022/02/28 04:25:55;;;;;;;7.97;5.30;;;3.20;66.40;;;;;;5023953;28;20041;-59
2022/02/28 04:28:21;;;;;;;7.82;5.07;;;3.20;66.40;;;;;;5029687;28;20055;-59
2022/02/28 04:30:47;;;;;;;9.05;5.10;;;3.10;66.50;;;;;;5028397;28;20033;-65
2022/02/28 04:33:12;;;;;;;8.88;4.93;;;3.10;66.60;;;;;;5029074;28;20048;-66
2022/02/28 04:35:38;;;;;;;10.88;5.78;;;3.10;66.70;;;;;;5028066;28;20084;-65
2022/02/28 04:38:07;;;;;;;9.48;5.85;;;3.00;66.80;;;;;;5025058;28;20021;-65
2022/02/28 04:40:33;;;;;;;10.25;5.70;;;3.00;66.80;;;;;;5023488;28;20599;-65
2022/02/28 04:42:59;;;;;;;11.88;6.60;;;3.00;66.90;;;;;;5028799;28;20032;-65
2022/02/28 04:45:25;;;;;;;11.27;5.72;;;3.00;66.90;;;;;;5036230;28;20037;-65
2022/02/28 04:47:51;;;;;;;10.73;5.50;;;2.90;66.90;;;;;;5026809;28;20029;-65
2022/02/28 04:50:16;;;;;;;10.27;5.82;;;2.90;67.20;;;;;;5031384;28;20104;-65
2022/02/28 04:52:42;;;;;;;10.30;5.78;;;2.90;67.30;;;;;;5026045;28;20029;-65
2022/02/28 04:55:08;;;;;;;11.27;6.20;;;2.90;67.40;;;;;;5031596;28;20498;-65
2022/02/28 04:57:38;;;;;;;10.50;5.85;;;2.90;67.40;;;;;;5026555;28;20037;-65
2022/02/28 05:00:04;;;;;;;11.32;5.75;;;2.80;67.40;;;;;;5039576;28;20020;-65
2022/02/28 05:02:30;;;;;;;10.18;6.28;;;2.80;67.50;;;;;;5030985;28;20033;-65
2022/02/28 05:04:56;;;;;;;11.68;6.70;;;2.80;67.60;;;;;;5029985;28;20036;-65
2022/02/28 05:07:23;;;;;;;10.70;6.25;;;2.80;67.60;;;;;;5026488;28;20029;-65
2022/02/28 05:09:48;;;;;;;9.98;6.28;;;2.70;67.60;;;;;;5030306;28;20038;-65
2022/02/28 05:12:14;;;;;;;10.38;5.85;;;2.80;67.80;;;;;;5025178;28;20029;-65
2022/02/28 05:14:40;;;;;;;11.15;7.30;;;2.70;67.80;;;;;;5026878;28;20361;-65
2022/02/28 05:17:05;;;;;;;9.85;6.10;;;2.70;68.00;;;;;;5030514;28;20072;-65
2022/02/28 05:19:31;;;;;;;11.25;6.63;;;2.70;68.00;;;;;;5026889;28;20503;-58
2022/02/28 05:21:57;;;;;;;12.20;6.63;;;2.70;68.00;;;;;;5030452;28;20030;-64
2022/02/28 05:24:23;;;;;;;11.00;6.93;;;2.70;68.30;;;;;;5028319;28;20041;-65
2022/02/28 05:26:49;;;;;;;13.30;6.35;;;2.60;68.20;;;;;;5024399;28;20046;-65
2022/02/28 05:29:15;;;;;;;9.77;6.38;;;2.60;68.30;;;;;;5024637;28;20068;-65
2022/02/28 05:31:40;;;;;;;11.10;6.78;;;2.60;68.30;;;;;;5025920;28;20532;-65
2022/02/28 05:34:06;;;;;;;11.55;6.63;;;2.60;68.40;;;;;;5028605;28;20436;-65
2022/02/28 05:36:32;;;;;;;12.80;6.63;;;2.50;68.40;;;;;;5029267;28;20370;-59
2022/02/28 05:38:57;;;;;;;12.80;7.03;;;2.60;68.50;;;;;;5028727;28;20085;-59
2022/02/28 05:41:23;;;;;;;15.13;6.65;;;2.50;68.60;;;;;;5029943;28;20366;-59
2022/02/28 05:43:49;;;;;;;11.75;6.70;;;2.50;68.60;;;;;;5030717;28;20569;-65
2022/02/28 05:46:15;;;;;;;11.10;6.45;;;2.50;68.60;;;;;;5030712;28;20480;-65
2022/02/28 05:48:41;;;;;;;12.80;6.47;;;2.40;68.60;;;;;;5019664;28;20033;-65
2022/02/28 05:51:06;;;;;;;10.32;6.40;;;2.50;68.60;;;;;;5030752;28;20030;-65
2022/02/28 05:53:32;;;;;;;10.20;6.35;;;2.40;68.60;;;;;;5028382;28;20575;-58
2022/02/28 05:55:58;;;;;;;12.95;7.03;;;2.40;68.70;;;;;;5030443;28;20052;-59
2022/02/28 05:58:24;;;;;;;12.15;7.15;;;2.40;68.70;;;;;;5029489;28;20021;-59
2022/02/28 06:00:50;;;;;;;11.18;6.95;;;2.30;68.70;;;;;;5024331;28;20459;-56
2022/02/28 06:03:15;;;;;;;13.25;7.20;;;2.30;68.80;;;;;;5023939;28;20021;-59
2022/02/28 06:05:41;;;;;;;10.50;6.35;;;2.30;68.80;;;;;;5030688;28;20048;-64
2022/02/28 06:08:07;;;;;;;12.80;7.47;;;2.30;68.90;;;;;;5023963;28;20140;-65
2022/02/28 06:10:32;;;;;;;12.18;6.85;;;2.30;68.90;;;;;;5024002;28;20063;-65
2022/02/28 06:12:58;;;;;;;12.43;7.47;;;2.30;69.00;;;;;;5025859;28;20180;-65
2022/02/28 06:15:24;;;;;;;11.98;6.80;;;2.20;69.00;;;;;;5023587;28;20109;-65
2022/02/28 06:17:49;;;;;;;12.15;6.85;;;2.20;69.10;;;;;;5019256;28;20045;-59
2022/02/28 06:20:15;;;;;;;13.30;6.72;;;2.20;69.10;;;;;;5024239;28;20028;-66
2022/02/28 06:22:41;;;;;;;16.10;7.72;;;2.20;69.20;;;;;;5029649;28;20064;-65
2022/02/28 06:25:07;;;;;;;13.13;6.75;;;2.10;69.30;;;;;;5029261;28;20021;-65
2022/02/28 06:27:33;;;;;;;12.45;6.90;;;2.10;69.30;;;;;;5028142;28;20037;-65
2022/02/28 06:29:59;;;;;;;11.85;6.88;;;2.10;69.30;;;;;;5028538;28;20040;-65
2022/02/28 06:32:24;;;;;;;11.32;7.20;;;2.10;69.50;;;;;;5022891;28;20183;-65
2022/02/28 06:34:50;;;;;;;13.93;7.68;;;2.10;70.20;;;;;;5029280;28;20029;-65
2022/02/28 06:37:16;;;;;;;13.32;7.40;;;2.10;69.70;;;;;;5029494;28;20516;-65
2022/02/28 06:39:42;;;;;;;10.65;7.00;;;2.10;69.70;;;;;;5029179;28;20108;-65
2022/02/28 06:42:09;;;;;;;16.13;8.40;;;2.10;69.80;;;;;;5027674;28;20029;-65
2022/02/28 06:44:35;;;;;;;14.18;8.63;;;2.10;69.90;;;;;;5029550;28;20030;-60
2022/02/28 06:47:01;;;;;;;13.90;7.95;;;2.00;70.00;;;;;;5028329;28;20423;-60
2022/02/28 06:49:26;;;;;;;13.82;7.75;;;2.00;70.00;;;;;;5029056;28;20038;-60
2022/02/28 06:51:52;;;;;;;14.93;8.00;;;2.00;70.10;;;;;;5027903;28;20363;-59
2022/02/28 06:54:18;;;;;;;15.13;7.78;;;2.00;70.30;;;;;;5028838;28;20120;-66
2022/02/28 06:56:43;;;;;;;14.23;7.28;;;2.00;70.40;;;;;;5028850;28;20029;-66
2022/02/28 06:59:09;;;;;;;16.05;7.97;;;2.00;70.40;;;;;;5029194;28;20024;-65
2022/02/28 07:01:36;;;;;;;12.18;7.55;;;2.00;70.50;;;;;;5027787;28;20026;-59
2022/02/28 07:04:03;;;;;;;13.82;8.27;;;2.00;70.60;;;;;;5029397;28;20034;-65
2022/02/28 07:06:29;;;;;;;15.07;8.48;;;2.00;70.60;;;;;;5013630;28;20025;-65
2022/02/28 07:08:55;;;;;;;15.10;8.27;;;2.00;70.60;;;;;;5027550;28;20073;-65
2022/02/28 07:11:21;;;;;;;14.20;8.35;;;2.00;70.70;;;;;;5027304;28;20056;-61
2022/02/28 07:13:47;;;;;;;15.05;8.82;;;2.00;70.80;;;;;;5018123;28;20459;-61
2022/02/28 07:16:15;;;;;;;15.90;9.30;;;2.00;70.90;;;;;;5027561;28;20057;-61
2022/02/28 07:18:41;;;;;;;16.30;9.07;;;2.10;71.00;;;;;;5027638;28;20056;-62
2022/02/28 07:21:06;;;;;;;16.02;9.20;;;2.10;71.10;;;;;;5011072;28;20022;-61
2022/02/28 07:23:32;;;;;;;15.02;8.98;;;2.10;71.10;;;;;;5018640;28;20087;-61
2022/02/28 07:25:58;;;;;;;16.10;9.55;;;2.10;71.10;;;;;;5028757;28;20041;-65
2022/02/28 07:28:24;;;;;;;15.40;8.95;;;2.20;71.30;;;;;;5019463;28;20033;-61
2022/02/28 07:30:50;;;;;;;14.90;9.02;;;2.20;71.30;;;;;;5024666;28;20041;-61
2022/02/28 07:33:15;;;;;;;16.75;9.18;;;2.20;71.30;;;;;;5028618;28;20480;-62
2022/02/28 07:35:41;;;;;;;13.80;8.57;;;2.30;71.30;;;;;;5014847;28;20468;-61
2022/02/28 07:38:08;;;;;;;13.60;8.13;;;2.30;71.40;;;;;;5025353;28;20031;-61
2022/02/28 07:40:34;;;;;;;14.43;8.50;;;2.40;71.40;;;;;;5024673;28;20038;-62
2022/02/28 07:42:59;;;;;;;14.43;8.30;;;2.40;71.40;;;;;;5028199;28;20025;-62
2022/02/28 07:45:25;;;;;;;14.82;8.48;;;2.40;71.40;;;;;;5026129;28;20443;-63
2022/02/28 07:47:51;;;;;;;12.93;8.95;;;2.50;71.70;;;;;;5036520;28;20077;-66
2022/02/28 07:50:17;;;;;;;13.02;8.18;;;2.60;71.80;;;;;;5026342;28;20029;-66
2022/02/28 07:52:42;;;;;;;13.20;7.80;;;2.60;71.80;;;;;;5024201;28;20040;-67
2022/02/28 07:55:08;;;;;;;13.90;8.25;;;2.70;71.70;;;;;;5025646;28;20425;-68
2022/02/28 07:57:35;;;;;;;12.82;8.00;;;2.70;71.60;;;;;;5025398;28;20404;-67
2022/02/28 08:00:01;;;;;;;10.65;7.70;;;2.80;71.70;;;;;;5025660;28;20524;-62
2022/02/28 08:02:27;;;;;;;12.68;7.82;;;2.80;71.60;;;;;;5017018;28;20523;-62
2022/02/28 08:04:53;;;;;;;13.52;7.70;;;2.90;71.60;;;;;;5033131;28;20037;-63
2022/02/28 08:07:18;;;;;;;10.98;8.23;;;2.90;71.50;;;;;;5021883;28;20040;-62
2022/02/28 08:09:44;;;;;;;12.40;7.47;;;3.00;71.60;;;;;;5014232;28;20132;-63
2022/02/28 08:12:10;;;;;;;11.80;7.90;;;3.00;71.50;;;;;;5025097;28;20087;-63
2022/02/28 08:14:36;;;;;;;17.90;8.00;;;3.10;71.50;;;;;;5025603;28;20037;-63
2022/02/28 08:17:02;;;;;;;10.82;7.57;;;3.10;71.40;;;;;;5025561;28;20049;-63
2022/02/28 08:19:27;;;;;;;17.27;8.93;;;3.20;71.30;;;;;;5023929;28;20032;-64
2022/02/28 08:21:53;;;;;;;11.65;7.70;;;3.20;71.40;;;;;;5025000;28;20477;-66
2022/02/28 08:24:19;;;;;;;13.88;7.63;;;3.30;71.30;;;;;;5026779;28;20112;-64
2022/02/28 08:26:44;;;;;;;11.77;7.80;;;3.30;71.10;;;;;;5025992;28;20496;-62
2022/02/28 08:29:10;;;;;;;15.38;7.82;;;3.40;71.00;;;;;;5023571;28;20043;-62
2022/02/28 08:31:36;;;;;;;11.75;7.47;;;3.50;70.80;;;;;;5025682;28;20064;-65
2022/02/28 08:34:02;;;;;;;10.85;7.32;;;3.50;70.60;;;;;;5028339;28;20034;-65
2022/02/28 08:36:28;;;;;;;11.98;7.43;;;3.50;70.60;;;;;;5019766;28;20030;-65
2022/02/28 08:38:54;;;;;;;12.45;8.02;;;3.60;70.50;;;;;;5028469;28;20030;-65
2022/02/28 08:41:19;;;;;;;11.50;7.85;;;3.70;70.40;;;;;;5028027;28;20491;-63
2022/02/28 08:43:45;;;;;;;10.52;7.05;;;3.70;70.20;;;;;;5017110;28;20041;-63
2022/02/28 08:46:11;;;;;;;9.20;6.65;;;3.80;70.10;;;;;;5028968;28;20033;-63
2022/02/28 08:48:36;;;;;;;10.60;6.60;;;3.80;70.00;;;;;;5043947;28;20040;-63
2022/02/28 08:51:03;;;;;;;11.40;6.95;;;3.90;69.90;;;;;;5030886;28;20148;-63
2022/02/28 08:53:29;;;;;;;13.60;7.40;;;4.00;69.80;;;;;;5026738;28;20041;-62
2022/02/28 08:55:57;;;;;;;12.25;7.15;;;4.10;69.50;;;;;;5024497;28;20394;-63
2022/02/28 08:58:23;;;;;;;12.45;7.93;;;4.10;69.10;;;;;;5024326;28;20570;-62
2022/02/28 09:00:49;;;;;;;12.13;7.07;;;4.20;68.60;;;;;;5029346;28;20112;-65
2022/02/28 09:03:15;;;;;;;9.68;6.50;;;4.30;68.60;;;;;;5024786;28;20057;-65
2022/02/28 09:05:41;;;;;;;11.60;7.80;;;4.30;68.40;;;;;;5023363;28;20119;-65
2022/02/28 09:08:07;;;;;;;9.52;6.50;;;4.50;68.20;;;;;;5028624;28;20043;-65
2022/02/28 09:10:32;;;;;;;11.70;7.13;;;4.50;68.20;;;;;;5028536;28;20049;-65
2022/02/28 09:12:58;;;;;;;10.93;6.72;;;4.60;68.00;;;;;;5027093;28;20037;-65
2022/02/28 09:15:24;;;;;;;9.63;6.53;;;4.70;67.60;;;;;;5028369;28;20457;-65
2022/02/28 09:17:50;;;;;;;13.05;7.25;;;4.80;67.50;;;;;;5027020;28;20049;-65
2022/02/28 09:20:15;;;;;;;11.98;7.18;;;4.90;67.10;;;;;;5029695;28;20033;-65
2022/02/28 09:22:41;;;;;;;11.55;7.03;;;5.00;67.00;;;;;;5028085;28;20109;-65
2022/02/28 09:25:08;;;;;;;8.93;6.72;;;5.10;66.20;;;;;;5027200;28;20083;-65
2022/02/28 09:27:34;;;;;;;8.75;6.28;;;5.20;66.30;;;;;;5024319;28;20041;-65
2022/02/28 09:30:00;;;;;;;10.63;7.22;;;5.30;66.30;;;;;;5034179;28;20056;-64
2022/02/28 09:32:26;;;;;;;10.10;6.18;;;5.50;65.80;;;;;;5034489;28;20025;-64
2022/02/28 09:34:52;;;;;;;11.88;7.22;;;5.60;65.60;;;;;;5031972;28;20043;-64
2022/02/28 09:37:17;;;;;;;13.10;6.85;;;5.60;65.00;;;;;;5018354;28;20104;-63
2022/02/28 09:39:43;;;;;;;8.77;6.10;;;5.80;64.60;;;;;;5028075;28;20488;-63
2022/02/28 09:42:10;;;;;;;8.45;6.32;;;5.80;64.50;;;;;;5023047;28;20024;-63
2022/02/28 09:44:36;;;;;;;9.85;6.97;;;6.00;64.20;;;;;;5029775;28;20120;-63
2022/02/28 09:47:03;;;;;;;10.32;6.18;;;6.10;63.70;;;;;;5025970;28;20088;-63
2022/02/28 09:49:29;;;;;;;8.73;5.90;;;6.20;63.70;;;;;;5026934;28;20484;-63
2022/02/28 09:51:55;;;;;;;8.10;5.53;;;6.30;63.50;;;;;;5028696;28;20040;-62
2022/02/28 09:54:21;;;;;;;7.82;6.25;;;6.40;63.40;;;;;;5022569;28;20045;-62
2022/02/28 09:56:47;;;;;;;8.80;6.45;;;6.60;62.90;;;;;;5026850;28;20041;-63
2022/02/28 09:59:12;;;;;;;9.02;6.63;;;6.60;62.50;;;;;;5022692;28;20088;-62
2022/02/28 10:01:43;;;;;;;10.15;5.85;;;6.70;62.40;;;;;;5019273;28;20045;-62
2022/02/28 10:04:09;;;;;;;10.45;6.75;;;6.80;62.10;;;;;;5019059;28;20498;-63
2022/02/28 10:06:35;;;;;;;8.07;6.20;;;6.90;61.00;;;;;;5024308;28;20065;-63
2022/02/28 10:09:04;;;;;;;9.80;6.60;;;6.90;61.10;;;;;;5042003;28;20492;-65
2022/02/28 10:11:38;;;;;;;10.02;6.47;;;7.00;60.70;;;;;;5028860;28;20484;-64
2022/02/28 10:14:06;;;;;;;10.40;6.63;;;7.10;60.40;;;;;;5029327;28;20037;-64
2022/02/28 10:16:33;;;;;;;10.20;6.35;;;7.20;60.10;;;;;;5028518;28;20405;-64
2022/02/28 10:19:00;;;;;;;10.27;6.88;;;7.30;60.20;;;;;;5030453;28;20025;-64
2022/02/28 10:21:58;;;;;;;7.55;5.88;;;7.40;60.00;;;;;;5029836;28;20056;-65
2022/02/28 10:24:32;;;;;;;8.10;6.05;;;7.50;59.70;;;;;;5027605;28;20038;-63
2022/02/28 10:26:58;;;;;;;10.73;6.55;;;7.50;59.30;;;;;;5022599;28;20511;-62
2022/02/28 10:29:27;;;;;;;8.05;6.53;;;7.60;58.60;;;;;;5025566;28;20055;-62
2022/02/28 10:32:00;;;;;;;11.93;7.15;;;7.70;56.30;;;;;;5029621;28;20040;-62
2022/02/28 10:34:28;;;;;;;11.38;6.55;;;7.80;56.90;;;;;;5024665;28;20034;-63
2022/02/28 10:36:57;;;;;;;8.00;5.50;;;7.90;57.30;;;;;;5023390;28;20116;-63
2022/02/28 10:39:37;;;;;;;8.23;5.53;;;7.90;57.50;;;;;;5022963;28;20410;-63
2022/02/28 10:42:16;;;;;;;7.15;5.50;;;8.10;57.70;;;;;;5025818;28;20030;-64
2022/02/28 10:44:43;;;;;;;7.63;5.15;;;8.30;57.40;;;;;;5031171;28;20716;-64
2022/02/28 10:47:12;;;;;;;7.13;5.85;;;8.40;56.90;;;;;;5023278;28;20101;-62
2022/02/28 10:49:40;;;;;;;8.43;5.50;;;8.50;56.50;;;;;;5027978;28;20175;-62
2022/02/28 10:52:08;;;;;;;8.20;5.82;;;8.60;56.10;;;;;;5019532;28;20029;-65
2022/02/28 10:54:37;;;;;;;6.93;5.20;;;8.60;54.60;;;;;;5027533;28;20029;-62
2022/02/28 10:57:06;;;;;;;7.43;5.82;;;8.70;53.70;;;;;;5019947;28;20025;-62
2022/02/28 10:59:38;;;;;;;6.88;5.53;;;8.80;54.90;;;;;;5026866;28;20044;-63
2022/02/28 11:02:03;;;;;;;10.05;6.43;;;8.80;54.30;;;;;;5020189;28;21591;-63
2022/02/28 11:04:31;;;;;;;8.45;5.88;;;8.90;54.30;;;;;;5028065;28;20030;-63
2022/02/28 11:06:57;;;;;;;10.98;7.30;;;9.00;54.60;;;;;;5016899;28;20112;-63
2022/02/28 11:09:34;;;;;;;10.35;7.03;;;9.00;54.60;;;;;;5017541;28;20030;-64
2022/02/28 11:12:29;;;;;;;8.25;6.13;;;9.10;55.10;;;;;;5040612;28;20037;-65
2022/02/28 11:15:00;;;;;;;8.98;5.97;;;9.20;54.30;;;;;;5023317;28;20025;-65
2022/02/28 11:17:29;;;;;;;13.98;5.88;;;9.30;54.30;;;;;;5024508;28;20049;-65
2022/02/28 11:19:58;;;;;;;9.68;6.60;;;9.50;54.30;;;;;;5013152;28;20032;-65
2022/02/28 11:23:41;;;;;;;10.98;7.05;;;9.70;53.40;;;;;;5065520;27;1323802;-65
2022/02/28 11:26:07;;;;;;;8.93;6.63;;;9.70;53.00;;;;;;5104863;28;20035;-65
2022/02/28 11:28:33;;;;;;;12.15;7.88;;;9.80;53.50;;;;;;5085059;28;20110;-64
2022/02/28 11:31:03;;;;;;;11.68;7.60;;;9.80;52.50;;;;;;5102520;28;20066;-64
2022/02/28 11:33:29;;;;;;;14.00;8.27;;;9.90;52.70;;;;;;5106331;28;20024;-65
2022/02/28 11:35:55;;;;;;;12.27;7.53;;;10.00;52.50;;;;;;5106034;28;20030;-65
2022/02/28 11:38:23;;;;;;;11.10;8.15;;;10.10;52.40;;;;;;5100007;28;20079;-65
2022/02/28 11:40:50;;;;;;;11.23;6.70;;;10.10;52.30;;;;;;5098727;28;20106;-65
2022/02/28 11:43:22;;;;;;;10.82;7.63;;;10.10;51.90;;;;;;5104995;28;20028;-65
2022/02/28 11:45:53;;;;;;;9.30;6.53;;;10.20;50.70;;;;;;5105469;28;20032;-64
2022/02/28 11:48:24;;;;;;;9.25;7.22;;;10.40;50.60;;;;;;5103237;28;20111;-65
2022/02/28 11:51:19;;;;;;;9.93;7.00;;;10.50;50.10;;;;;;5105927;28;20028;-64
2022/02/28 11:53:52;;;;;;;9.30;7.10;;;10.70;50.30;;;;;;5102917;28;20050;-64
2022/02/28 11:56:17;;;;;;;8.75;6.05;;;10.80;50.30;;;;;;5084479;28;20028;-64
2022/02/28 11:59:13;;;;;;;9.02;6.28;;;10.90;50.70;;;;;;5096540;28;20050;-62
2022/02/28 12:01:49;;;;;;;12.43;7.40;;;11.00;50.30;;;;;;5106196;28;20455;-62
2022/02/28 12:04:20;;;;;;;12.98;8.50;;;11.10;49.80;;;;;;5100930;28;20198;-63
2022/02/28 12:06:59;;;;;;;11.52;7.55;;;11.20;47.40;;;;;;5106537;28;20029;-63
2022/02/28 12:09:36;;;;;;;9.40;7.13;;;11.20;47.60;;;;;;5104955;28;20066;-62
2022/02/28 12:12:20;;;;;;;10.48;8.10;;;11.20;47.00;;;;;;5104900;28;20478;-62
2022/02/28 12:14:55;;;;;;;8.68;6.15;;;11.20;47.10;;;;;;5093492;28;20024;-63
2022/02/28 12:17:30;;;;;;;8.43;6.20;;;11.40;47.00;;;;;;5104270;28;20506;-63
2022/02/28 12:20:19;;;;;;;8.65;6.50;;;11.50;47.20;;;;;;5090715;28;20838;-63
2022/02/28 12:23:09;;;;;;;9.70;6.53;;;11.70;46.60;;;;;;5085363;28;20072;-65
2022/02/28 12:25:53;;;;;;;8.98;6.05;;;11.80;45.70;;;;;;5087359;28;20032;-63
2022/02/28 12:28:34;;;;;;;7.63;6.00;;;11.80;45.20;;;;;;5104299;28;20028;-65
2022/02/28 12:31:05;;;;;;;8.20;6.30;;;11.80;43.70;;;;;;5099319;28;20016;-64
2022/02/28 12:33:37;;;;;;;9.10;5.47;;;11.80;43.70;;;;;;5081637;28;20022;-65
2022/02/28 12:36:11;;;;;;;8.33;5.97;;;11.80;43.90;;;;;;5073467;28;20035;-62
2022/02/28 12:38:43;;;;;;;8.75;5.93;;;11.80;43.50;;;;;;5091350;28;20274;-62
2022/02/28 12:41:36;;;;;;;7.68;5.65;;;;;;;;;;5088518;28;20017;-62
2022/02/28 12:45:07;;;;;;;8.15;6.15;;;12.10;43.80;;;;;;5069971;27;1314462;-63
2022/02/28 12:47:34;;;;;;;7.93;6.95;;;12.10;45.00;;;;;;5101289;28;20054;-63
2022/02/28 12:50:09;;;;;;;10.82;6.80;;;12.30;44.70;;;;;;5102061;28;20035;-63
2022/02/28 12:52:35;;;;;;;8.52;6.15;;;12.40;44.80;;;;;;5095799;28;20453;-63
2022/02/28 12:55:01;;;;;;;7.10;6.03;;;12.60;43.80;;;;;;5092504;28;20425;-64